Time;durP1;ratioP1;P1;durP2;ratioP2;P2;SDS_P1;SDS_P2;PMS_P1;PMS_P2;Temp;Humidity;BMP_temperature;BMP_pressure;BME280_temperature;BME280_humidity;BME280_pressure;Samples;Min_cycle;Max_cycle;Signal;HPM_P1;HPM_P2
2022/03/10 00:02:08;;;;;;;20.70;14.90;;;8.80;46.70;;;;;;5060806;28;20476;-75
2022/03/10 00:04:35;;;;;;;21.70;14.90;;;9.00;46.30;;;;;;5057836;28;20219;-75
2022/03/10 00:07:02;;;;;;;22.07;14.97;;;8.80;46.40;;;;;;5063348;28;20463;-74
2022/03/10 00:09:28;;;;;;;21.30;15.30;;;8.90;46.70;;;;;;5061331;28;20541;-73
2022/03/10 00:11:54;;;;;;;22.57;14.90;;;8.90;46.40;;;;;;5062812;28;21007;-73
2022/03/10 00:14:19;;;;;;;21.67;15.30;;;8.80;46.60;;;;;;5061005;28;20756;-73
2022/03/10 00:16:45;;;;;;;26.30;13.90;;;8.60;46.90;;;;;;5062197;28;20241;-73
2022/03/10 00:19:12;;;;;;;23.87;15.73;;;8.60;47.70;;;;;;5059142;28;20207;-73
2022/03/10 00:21:38;;;;;;;27.40;16.20;;;8.60;47.30;;;;;;5060620;28;20194;-73
2022/03/10 00:24:04;;;;;;;21.10;13.60;;;8.60;47.30;;;;;;5046585;28;20509;-72
2022/03/10 00:26:30;;;;;;;24.30;16.70;;;8.60;47.60;;;;;;5059937;28;20433;-75
2022/03/10 00:28:56;;;;;;;22.17;14.20;;;8.50;47.90;;;;;;5062612;28;20429;-75
2022/03/10 00:31:21;;;;;;;23.43;14.10;;;8.30;48.50;;;;;;5062186;28;20557;-75
2022/03/10 00:33:48;;;;;;;24.50;14.27;;;8.30;48.50;;;;;;5060842;28;20244;-72
2022/03/10 00:36:14;;;;;;;27.83;13.57;;;8.30;48.40;;;;;;5060016;28;20187;-72
2022/03/10 00:38:40;;;;;;;27.60;15.33;;;8.20;48.60;;;;;;5063198;28;20453;-72
2022/03/10 00:41:05;;;;;;;22.73;14.70;;;8.10;48.90;;;;;;5063349;28;20446;-73
2022/03/10 00:43:31;;;;;;;24.03;15.80;;;8.10;49.20;;;;;;5058739;28;20648;-74
2022/03/10 00:45:57;;;;;;;27.03;16.67;;;8.10;49.10;;;;;;5062507;28;20199;-73
2022/03/10 00:48:22;;;;;;;23.10;16.30;;;8.40;49.00;;;;;;5061305;28;20218;-73
2022/03/10 00:50:48;;;;;;;21.47;15.20;;;8.50;48.40;;;;;;5063297;28;20249;-73
2022/03/10 00:53:14;;;;;;;24.67;15.00;;;8.50;48.20;;;;;;5062637;28;20276;-73
2022/03/10 00:55:39;;;;;;;23.10;15.60;;;8.20;48.60;;;;;;5058614;28;20189;-74
2022/03/10 00:58:05;;;;;;;30.30;18.10;;;8.30;48.70;;;;;;5062396;28;20251;-73
2022/03/10 01:00:31;;;;;;;22.03;15.43;;;8.10;48.80;;;;;;5059985;28;20248;-74
2022/03/10 01:02:57;;;;;;;28.20;17.40;;;8.20;48.80;;;;;;5061446;28;20549;-73
2022/03/10 01:05:23;;;;;;;27.90;17.70;;;8.20;48.70;;;;;;5057786;28;20214;-74
2022/03/10 01:07:49;;;;;;;23.93;16.57;;;8.10;49.00;;;;;;5062036;28;20985;-74
2022/03/10 01:10:16;;;;;;;27.13;17.73;;;8.10;49.40;;;;;;5059872;28;20527;-75
2022/03/10 01:12:45;;;;;;;24.00;18.17;;;8.00;49.30;;;;;;5061002;28;20693;-75
2022/03/10 01:15:22;;;;;;;27.30;16.30;;;8.00;49.10;;;;;;5060754;28;20882;-75
2022/03/10 01:17:49;;;;;;;26.47;17.77;;;8.20;49.00;;;;;;5061193;28;20437;-75
2022/03/10 01:20:16;;;;;;;30.57;17.83;;;8.10;49.10;;;;;;5061369;28;20452;-75
2022/03/10 01:22:41;;;;;;;28.80;19.10;;;8.00;49.40;;;;;;5062263;28;20524;-75
2022/03/10 01:25:08;;;;;;;27.97;18.13;;;7.80;49.40;;;;;;5058838;28;20578;-75
2022/03/10 01:27:35;;;;;;;30.77;18.17;;;7.90;49.30;;;;;;5061648;28;20566;-75
2022/03/10 01:30:00;;;;;;;27.13;16.80;;;7.80;49.40;;;;;;5057763;28;21287;-75
2022/03/10 01:32:26;;;;;;;27.87;18.27;;;7.90;49.50;;;;;;5062482;28;20456;-75
2022/03/10 01:34:53;;;;;;;27.40;17.93;;;7.70;49.70;;;;;;5057995;28;21009;-75
2022/03/10 01:37:19;;;;;;;27.20;17.60;;;7.40;50.10;;;;;;5059226;28;20183;-75
2022/03/10 01:39:45;;;;;;;27.87;18.50;;;7.30;50.70;;;;;;5061352;28;20465;-75
2022/03/10 01:42:11;;;;;;;31.97;18.53;;;7.20;50.80;;;;;;5059788;28;20495;-75
2022/03/10 01:44:37;;;;;;;25.57;17.80;;;7.30;50.90;;;;;;5058501;28;20450;-74
2022/03/10 01:47:05;;;;;;;27.27;18.17;;;7.30;50.90;;;;;;5057387;28;20191;-74
2022/03/10 01:49:32;;;;;;;28.10;18.70;;;7.30;50.90;;;;;;5045267;28;20970;-74
2022/03/10 01:51:58;;;;;;;30.00;18.77;;;7.30;51.00;;;;;;5057601;28;20568;-73
2022/03/10 01:54:24;;;;;;;27.17;19.47;;;6.90;51.40;;;;;;5060739;28;21406;-74
2022/03/10 01:56:51;;;;;;;29.70;18.17;;;6.80;51.60;;;;;;5059682;28;20455;-74
2022/03/10 01:59:18;;;;;;;31.43;18.83;;;6.30;52.90;;;;;;5061463;28;20212;-74
2022/03/10 02:01:44;;;;;;;25.30;17.10;;;6.50;53.10;;;;;;5061904;28;20476;-74
2022/03/10 02:04:10;;;;;;;31.07;18.67;;;6.60;52.90;;;;;;5061927;28;20429;-74
2022/03/10 02:06:36;;;;;;;26.70;17.20;;;6.50;53.00;;;;;;5057853;28;20494;-74
2022/03/10 02:11:47;;;;;;;29.50;18.10;;;7.20;52.20;;;;;;5058451;28;20242;-74
2022/03/10 02:19:41;;;;;;;26.80;17.77;;;6.70;53.10;;;;;;5060579;28;20452;-74
2022/03/10 02:22:09;;;;;;;29.30;19.20;;;6.70;53.00;;;;;;5056502;28;20907;-74
2022/03/10 02:24:39;;;;;;;27.33;18.03;;;6.70;53.10;;;;;;5061727;28;20452;-74
2022/03/10 02:27:31;;;;;;;26.40;16.33;;;6.70;53.30;;;;;;5057158;28;20441;-73
2022/03/10 02:30:00;;;;;;;36.50;20.13;;;6.80;53.10;;;;;;5057179;28;21015;-73
2022/03/10 02:32:26;;;;;;;30.20;18.57;;;6.80;53.10;;;;;;5057887;28;20470;-73
2022/03/10 02:34:51;;;;;;;25.77;16.77;;;6.60;53.50;;;;;;5043658;28;21000;-73
2022/03/10 02:37:17;;;;;;;30.50;18.50;;;6.40;53.90;;;;;;5057261;28;20507;-72
2022/03/10 02:39:45;;;;;;;30.83;17.77;;;6.50;54.10;;;;;;5042827;28;20246;-73
2022/03/10 02:42:12;;;;;;;32.50;19.23;;;6.40;54.20;;;;;;5057025;28;20434;-73
2022/03/10 02:44:42;;;;;;;28.83;16.83;;;6.60;54.20;;;;;;5041786;28;20887;-73
2022/03/10 02:47:08;;;;;;;27.23;18.37;;;6.50;54.20;;;;;;5059613;28;20445;-73
2022/03/10 02:49:34;;;;;;;30.30;19.57;;;6.70;54.00;;;;;;5059434;28;20819;-73
2022/03/10 02:52:03;;;;;;;30.33;18.70;;;6.60;54.30;;;;;;5059721;28;20479;-73
2022/03/10 02:54:29;;;;;;;28.70;18.57;;;7.00;54.50;;;;;;5057618;28;20434;-73
2022/03/10 02:56:54;;;;;;;27.10;18.83;;;7.10;53.70;;;;;;5063383;28;20574;-73
2022/03/10 02:59:20;;;;;;;26.40;18.10;;;7.20;53.20;;;;;;5061655;28;20463;-72
2022/03/10 03:01:46;;;;;;;29.53;19.53;;;6.90;53.20;;;;;;5066221;28;20870;-73
2022/03/10 03:04:11;;;;;;;29.87;19.40;;;6.70;53.90;;;;;;5062848;28;20667;-73
2022/03/10 03:06:37;;;;;;;32.07;20.80;;;6.80;54.20;;;;;;5063270;28;20194;-73
2022/03/10 03:09:03;;;;;;;23.13;15.83;;;7.00;53.80;;;;;;5058107;28;20183;-73
2022/03/10 03:11:28;;;;;;;27.30;16.70;;;7.00;53.50;;;;;;5063361;28;20183;-73
2022/03/10 03:13:56;;;;;;;28.70;17.73;;;7.10;53.50;;;;;;5062991;28;20183;-73
2022/03/10 03:16:23;;;;;;;27.53;17.67;;;6.80;53.70;;;;;;5061638;28;20301;-74
2022/03/10 03:18:49;;;;;;;24.43;16.33;;;6.70;53.60;;;;;;5062966;28;20534;-73
2022/03/10 03:21:14;;;;;;;26.67;18.50;;;6.40;53.80;;;;;;5060865;28;20947;-73
2022/03/10 03:23:40;;;;;;;30.73;17.50;;;6.50;54.20;;;;;;5064382;28;20683;-73
2022/03/10 03:26:05;;;;;;;30.30;17.93;;;6.60;54.00;;;;;;5061300;28;20183;-73
2022/03/10 03:28:31;;;;;;;28.17;18.03;;;6.50;54.00;;;;;;5064752;28;20712;-73
2022/03/10 03:30:57;;;;;;;34.33;17.57;;;6.50;54.30;;;;;;5062466;28;20227;-74
2022/03/10 03:33:22;;;;;;;27.33;16.90;;;6.40;54.50;;;;;;5062351;28;20229;-74
2022/03/10 03:35:48;;;;;;;28.97;18.07;;;6.30;54.60;;;;;;5060985;28;20223;-74
2022/03/10 03:38:13;;;;;;;27.90;17.27;;;6.20;55.10;;;;;;5063655;28;20215;-74
2022/03/10 03:40:40;;;;;;;26.97;17.57;;;6.30;54.80;;;;;;5061972;28;20222;-75
2022/03/10 03:43:06;;;;;;;29.20;17.87;;;6.30;55.10;;;;;;5063427;28;20182;-75
2022/03/10 03:45:32;;;;;;;26.93;17.97;;;6.30;55.10;;;;;;5059238;28;20445;-75
2022/03/10 03:47:57;;;;;;;29.50;16.80;;;6.20;54.90;;;;;;5060139;28;20241;-75
2022/03/10 03:50:23;;;;;;;29.80;20.03;;;6.10;55.20;;;;;;5059389;28;20312;-74
2022/03/10 03:52:48;;;;;;;27.70;17.90;;;5.90;55.80;;;;;;5062353;28;20306;-75
2022/03/10 03:55:14;;;;;;;25.33;17.63;;;6.10;55.70;;;;;;5064013;28;20214;-73
2022/03/10 03:57:41;;;;;;;30.60;17.27;;;6.00;55.40;;;;;;5058883;28;20933;-73
2022/03/10 04:00:09;;;;;;;27.93;17.57;;;6.00;55.70;;;;;;5062187;28;20835;-73
2022/03/10 04:02:36;;;;;;;28.30;17.30;;;6.10;55.20;;;;;;5060797;28;20437;-73
2022/03/10 04:05:02;;;;;;;29.10;18.00;;;6.00;55.10;;;;;;5061249;28;20477;-73
2022/03/10 04:07:28;;;;;;;29.37;18.17;;;6.10;55.20;;;;;;5059120;28;21072;-75
2022/03/10 04:09:54;;;;;;;31.13;16.37;;;6.00;55.10;;;;;;5061735;28;20594;-74
2022/03/10 04:12:19;;;;;;;28.67;17.40;;;6.00;55.10;;;;;;5061799;28;20203;-75
2022/03/10 04:14:45;;;;;;;31.53;17.63;;;6.10;55.20;;;;;;5060793;28;20763;-75
2022/03/10 04:17:10;;;;;;;27.10;17.20;;;6.30;54.90;;;;;;5062690;28;20183;-75
2022/03/10 04:19:36;;;;;;;27.90;17.20;;;6.30;54.50;;;;;;5061958;28;21532;-74
2022/03/10 04:22:02;;;;;;;24.60;15.73;;;6.20;54.50;;;;;;5061340;28;20664;-74
2022/03/10 04:24:28;;;;;;;24.63;15.37;;;5.90;55.20;;;;;;5062376;28;20679;-74
2022/03/10 04:26:54;;;;;;;25.33;17.50;;;6.00;55.20;;;;;;5060158;28;20552;-73
2022/03/10 04:29:19;;;;;;;32.23;16.07;;;5.80;55.10;;;;;;5062161;28;20207;-73
2022/03/10 04:31:45;;;;;;;28.67;15.97;;;5.60;55.50;;;;;;5060649;28;20215;-73
2022/03/10 04:34:10;;;;;;;23.53;15.93;;;5.40;56.20;;;;;;5059416;28;20611;-73
2022/03/10 04:36:36;;;;;;;24.10;15.23;;;5.60;56.30;;;;;;5059904;28;20183;-73
2022/03/10 04:39:03;;;;;;;28.83;16.50;;;5.70;56.00;;;;;;5061818;28;20183;-75
2022/03/10 04:41:29;;;;;;;28.93;17.27;;;5.70;55.80;;;;;;5061137;28;20436;-73
2022/03/10 04:43:55;;;;;;;28.43;15.70;;;5.70;56.10;;;;;;5061084;28;21482;-73
2022/03/10 04:46:21;;;;;;;30.90;18.37;;;5.60;56.30;;;;;;5060591;28;20480;-73
2022/03/10 04:48:46;;;;;;;27.20;15.90;;;5.50;56.30;;;;;;5059408;28;20244;-73
2022/03/10 04:51:12;;;;;;;34.67;16.57;;;5.80;55.90;;;;;;5059040;28;20279;-74
2022/03/10 04:53:38;;;;;;;25.47;15.73;;;5.80;56.00;;;;;;5044763;28;20233;-73
2022/03/10 04:56:03;;;;;;;35.60;17.60;;;5.70;55.80;;;;;;5059596;28;20174;-73
2022/03/10 04:58:29;;;;;;;25.60;17.40;;;5.80;56.10;;;;;;5062472;28;20187;-73
2022/03/10 05:00:55;;;;;;;22.93;14.83;;;5.70;56.20;;;;;;5059778;28;20868;-76
2022/03/10 05:03:20;;;;;;;28.63;17.07;;;5.70;56.60;;;;;;5062178;28;20282;-73
2022/03/10 05:05:49;;;;;;;30.30;16.40;;;5.60;56.40;;;;;;5060074;28;20759;-75
2022/03/10 05:08:15;;;;;;;30.90;16.50;;;5.50;56.70;;;;;;5063779;28;20191;-74
2022/03/10 05:10:40;;;;;;;24.97;16.70;;;5.50;56.70;;;;;;5060489;28;20461;-74
2022/03/10 05:13:07;;;;;;;28.63;15.63;;;5.70;56.70;;;;;;5061836;28;20465;-74
2022/03/10 05:15:32;;;;;;;27.50;16.70;;;5.60;56.90;;;;;;5060796;28;20260;-74
2022/03/10 05:18:02;;;;;;;29.03;16.87;;;5.50;57.30;;;;;;5060390;28;20433;-74
2022/03/10 05:20:29;;;;;;;26.80;16.57;;;5.50;57.70;;;;;;5059633;28;20265;-74
2022/03/10 05:23:00;;;;;;;33.37;17.63;;;5.70;57.60;;;;;;5061929;28;20516;-74
2022/03/10 05:25:35;;;;;;;26.10;17.00;;;5.70;57.60;;;;;;5059960;28;20870;-74
2022/03/10 05:28:00;;;;;;;27.13;15.77;;;5.60;57.90;;;;;;5061958;28;20521;-74
2022/03/10 05:30:26;;;;;;;27.30;16.70;;;5.50;58.20;;;;;;5059307;28;20540;-74
2022/03/10 05:32:52;;;;;;;26.47;16.27;;;5.60;58.30;;;;;;5059672;28;20199;-73
2022/03/10 05:35:18;;;;;;;30.63;17.97;;;5.60;58.20;;;;;;5061866;28;20253;-74
2022/03/10 05:37:45;;;;;;;29.80;19.33;;;5.50;58.30;;;;;;5055923;28;20171;-74
2022/03/10 05:40:16;;;;;;;28.43;18.27;;;5.50;58.80;;;;;;5061630;28;20758;-74
2022/03/10 05:42:44;;;;;;;30.13;17.67;;;5.40;58.80;;;;;;5060044;28;20488;-74
2022/03/10 05:45:11;;;;;;;29.20;17.87;;;5.10;59.20;;;;;;5043944;28;20449;-74
2022/03/10 05:47:38;;;;;;;29.47;18.50;;;5.30;59.10;;;;;;5060426;28;21145;-73
2022/03/10 05:50:05;;;;;;;28.63;16.77;;;5.50;58.50;;;;;;5061661;28;20499;-73
2022/03/10 05:52:31;;;;;;;28.00;16.37;;;5.50;58.10;;;;;;5057728;28;20953;-74
2022/03/10 05:54:57;;;;;;;29.20;17.80;;;5.20;58.40;;;;;;5061799;28;20433;-73
2022/03/10 05:57:23;;;;;;;27.83;17.57;;;5.20;58.60;;;;;;5060892;28;20636;-74
2022/03/10 05:59:48;;;;;;;27.90;18.67;;;5.30;57.90;;;;;;5061514;28;20563;-74
2022/03/10 06:02:17;;;;;;;32.50;19.47;;;5.30;57.60;;;;;;5058037;28;20229;-74
2022/03/10 06:04:43;;;;;;;29.93;18.00;;;5.00;58.10;;;;;;5060323;28;20187;-74
2022/03/10 06:07:09;;;;;;;29.50;17.43;;;5.10;58.10;;;;;;5060874;28;20582;-75
2022/03/10 06:09:34;;;;;;;30.00;18.60;;;5.20;58.30;;;;;;5059540;28;20528;-74
2022/03/10 06:12:01;;;;;;;35.00;19.50;;;5.10;58.10;;;;;;5045913;28;20710;-75
2022/03/10 06:14:26;;;;;;;29.00;18.60;;;5.00;58.40;;;;;;5059091;28;20180;-73
2022/03/10 06:16:52;;;;;;;32.40;18.43;;;4.90;58.60;;;;;;5042356;28;20449;-73
2022/03/10 06:19:18;;;;;;;27.80;17.97;;;4.80;58.90;;;;;;5060204;28;20213;-73
2022/03/10 06:21:44;;;;;;;34.30;18.53;;;4.80;58.80;;;;;;5060201;28;20433;-74
2022/03/10 06:24:10;;;;;;;27.80;17.37;;;4.70;59.40;;;;;;5044715;28;20183;-74
2022/03/10 06:26:38;;;;;;;29.30;18.57;;;4.40;59.90;;;;;;5059225;28;20198;-75
2022/03/10 06:29:04;;;;;;;33.67;17.37;;;4.60;60.30;;;;;;5037351;28;20956;-74
2022/03/10 06:31:31;;;;;;;34.07;19.00;;;4.80;59.90;;;;;;5060298;28;20437;-68
2022/03/10 06:33:58;;;;;;;25.23;17.67;;;4.70;59.60;;;;;;5044512;28;20904;-75
2022/03/10 06:36:24;;;;;;;30.37;19.10;;;4.70;59.80;;;;;;5060998;28;20441;-74
2022/03/10 06:38:50;;;;;;;41.33;20.33;;;4.80;60.30;;;;;;5064431;28;20996;-77
2022/03/10 06:41:15;;;;;;;34.53;19.87;;;4.70;60.40;;;;;;5064146;28;20433;-74
2022/03/10 06:43:41;;;;;;;29.87;18.97;;;4.70;61.40;;;;;;5063405;28;20199;-74
2022/03/10 06:46:07;;;;;;;29.87;18.97;;;4.50;61.80;;;;;;5063707;28;20195;-74
2022/03/10 06:48:33;;;;;;;29.83;18.60;;;4.50;61.80;;;;;;5065236;28;20184;-74
2022/03/10 06:50:58;;;;;;;28.40;17.73;;;4.40;62.20;;;;;;5063213;28;20965;-74
2022/03/10 06:53:24;;;;;;;28.00;17.97;;;4.20;63.00;;;;;;5066373;28;20207;-74
2022/03/10 06:55:50;;;;;;;33.57;20.13;;;4.30;63.10;;;;;;5063796;28;20196;-74
2022/03/10 06:58:15;;;;;;;31.03;17.87;;;4.60;62.40;;;;;;5046677;28;20178;-74
2022/03/10 07:00:41;;;;;;;29.63;20.13;;;4.50;62.00;;;;;;5061127;28;20978;-75
2022/03/10 07:03:06;;;;;;;32.67;19.60;;;4.50;61.50;;;;;;5067002;28;20183;-75
2022/03/10 07:05:32;;;;;;;31.10;16.70;;;4.60;61.80;;;;;;5060386;28;20760;-75
2022/03/10 07:07:58;;;;;;;27.50;17.17;;;4.70;61.60;;;;;;5065061;28;20229;-75
2022/03/10 07:10:23;;;;;;;31.20;18.97;;;4.80;60.90;;;;;;5062895;28;20213;-73
2022/03/10 07:12:49;;;;;;;29.00;18.63;;;4.90;60.50;;;;;;5062597;28;20308;-73
2022/03/10 07:15:14;;;;;;;30.13;17.33;;;4.90;60.50;;;;;;5047321;28;20670;-74
2022/03/10 07:17:41;;;;;;;31.47;19.10;;;5.00;60.70;;;;;;5061354;28;20183;-74
2022/03/10 07:20:08;;;;;;;30.23;17.67;;;5.00;60.40;;;;;;5063517;28;20207;-74
2022/03/10 07:22:34;;;;;;;26.97;18.73;;;4.90;61.10;;;;;;5063606;28;20434;-74
2022/03/10 07:25:00;;;;;;;27.90;18.63;;;4.90;60.30;;;;;;5064280;28;20459;-74
2022/03/10 07:27:26;;;;;;;30.33;17.90;;;5.00;60.30;;;;;;5046857;28;20449;-74
2022/03/10 07:29:51;;;;;;;32.13;18.13;;;5.20;59.90;;;;;;5062691;28;20205;-74
2022/03/10 07:32:17;;;;;;;27.93;19.20;;;5.50;60.00;;;;;;5064759;28;20236;-76
2022/03/10 07:34:47;;;;;;;30.50;18.37;;;5.50;61.10;;;;;;5042555;28;20188;-73
2022/03/10 07:37:14;;;;;;;26.70;17.77;;;5.70;59.60;;;;;;5061409;28;20479;-73
2022/03/10 07:39:40;;;;;;;29.63;18.60;;;5.80;59.10;;;;;;5045650;28;20668;-74
2022/03/10 07:42:08;;;;;;;27.23;18.70;;;6.00;58.80;;;;;;5064627;28;20486;-74
2022/03/10 07:44:34;;;;;;;33.43;18.20;;;6.00;58.60;;;;;;5058953;28;20313;-76
2022/03/10 07:47:00;;;;;;;31.83;18.57;;;6.10;58.40;;;;;;5063587;28;20463;-75
2022/03/10 07:49:25;;;;;;;32.47;17.50;;;6.20;58.00;;;;;;5060088;28;20244;-75
2022/03/10 07:51:51;;;;;;;32.00;18.10;;;6.00;58.90;;;;;;5065701;28;20245;-76
2022/03/10 07:54:16;;;;;;;28.50;15.67;;;6.10;58.50;;;;;;5063609;28;20191;-75
2022/03/10 07:56:42;;;;;;;36.63;16.40;;;6.20;58.00;;;;;;5061424;28;20222;-76
2022/03/10 07:59:07;;;;;;;27.60;18.73;;;6.30;57.90;;;;;;5059212;28;20223;-76
2022/03/10 08:01:33;;;;;;;33.73;18.50;;;6.50;57.50;;;;;;5061387;28;20171;-72
2022/03/10 08:03:59;;;;;;;30.40;17.53;;;6.60;57.20;;;;;;5056687;28;20187;-75
2022/03/10 08:06:26;;;;;;;30.07;17.83;;;6.70;57.30;;;;;;5061315;28;20184;-78
2022/03/10 08:08:52;;;;;;;30.53;16.70;;;6.80;57.10;;;;;;5058993;28;20195;-74
2022/03/10 08:11:18;;;;;;;29.83;18.30;;;6.80;57.00;;;;;;5061954;28;20452;-76
2022/03/10 08:13:44;;;;;;;27.40;16.17;;;6.90;57.00;;;;;;5056236;28;20473;-72
2022/03/10 08:16:10;;;;;;;31.50;17.80;;;6.90;56.40;;;;;;5061658;28;20479;-73
2022/03/10 08:18:36;;;;;;;31.13;18.70;;;6.90;56.50;;;;;;5060301;28;20752;-72
2022/03/10 08:21:02;;;;;;;26.67;17.80;;;7.00;56.40;;;;;;5052886;28;20452;-72
2022/03/10 08:23:28;;;;;;;28.27;17.70;;;7.00;56.50;;;;;;5061135;28;20181;-73
2022/03/10 08:25:54;;;;;;;25.73;17.27;;;7.00;56.60;;;;;;5057474;28;21163;-75
2022/03/10 08:28:20;;;;;;;31.23;18.33;;;7.20;56.40;;;;;;5061320;28;20523;-75
2022/03/10 08:30:46;;;;;;;41.47;17.07;;;7.30;56.30;;;;;;5060065;28;20689;-73
2022/03/10 08:33:11;;;;;;;32.87;19.83;;;7.30;55.80;;;;;;5061437;28;20213;-73
2022/03/10 08:35:37;;;;;;;35.53;20.10;;;7.40;55.70;;;;;;5061769;28;20807;-72
2022/03/10 08:38:03;;;;;;;29.50;17.87;;;7.40;55.60;;;;;;5060030;28;20185;-72
2022/03/10 08:40:29;;;;;;;34.13;18.83;;;7.50;55.20;;;;;;5062428;28;20202;-71
2022/03/10 08:42:55;;;;;;;31.03;18.27;;;7.50;55.10;;;;;;5057705;28;20526;-75
2022/03/10 08:45:25;;;;;;;28.77;17.87;;;7.70;54.90;;;;;;5057175;28;20210;-72
2022/03/10 08:47:51;;;;;;;30.47;17.73;;;7.70;54.80;;;;;;5054373;28;20191;-73
2022/03/10 08:50:17;;;;;;;32.83;19.03;;;7.70;54.70;;;;;;5061990;28;20457;-73
2022/03/10 08:52:43;;;;;;;29.10;16.73;;;7.80;54.80;;;;;;5057964;28;20469;-72
2022/03/10 08:55:10;;;;;;;34.60;17.70;;;8.00;54.40;;;;;;5037482;28;20305;-73
2022/03/10 08:57:36;;;;;;;27.50;17.40;;;8.00;54.20;;;;;;5058510;28;20186;-72
2022/03/10 09:00:04;;;;;;;26.53;16.43;;;8.10;54.40;;;;;;5059046;28;20467;-73
2022/03/10 09:02:30;;;;;;;26.60;16.20;;;8.20;54.30;;;;;;5059404;28;20442;-72
2022/03/10 09:04:56;;;;;;;28.67;17.07;;;8.30;54.30;;;;;;5061164;28;20438;-71
2022/03/10 09:07:21;;;;;;;31.83;16.67;;;8.40;54.20;;;;;;5060388;28;20472;-71
2022/03/10 09:09:47;;;;;;;31.67;16.43;;;8.40;54.20;;;;;;5059152;28;20292;-69
2022/03/10 09:12:13;;;;;;;22.20;16.70;;;8.60;54.10;;;;;;5061848;28;20207;-71
2022/03/10 09:14:38;;;;;;;23.70;16.27;;;8.70;53.90;;;;;;5059502;28;20201;-71
2022/03/10 09:17:04;;;;;;;25.80;16.57;;;8.70;53.90;;;;;;5059842;28;20258;-72
2022/03/10 09:19:30;;;;;;;28.90;16.17;;;8.90;53.80;;;;;;5057826;28;20263;-70
2022/03/10 09:21:55;;;;;;;27.47;18.00;;;8.90;54.00;;;;;;5060276;28;20190;-72
2022/03/10 09:24:21;;;;;;;28.10;17.03;;;9.00;53.90;;;;;;5059036;28;21054;-73
2022/03/10 09:26:47;;;;;;;24.40;14.97;;;9.10;53.90;;;;;;5059420;28;20273;-72
2022/03/10 09:29:12;;;;;;;32.43;15.70;;;9.20;53.70;;;;;;5059327;28;20569;-73
2022/03/10 09:31:38;;;;;;;27.80;16.63;;;9.20;54.00;;;;;;5059326;28;20835;-73
2022/03/10 09:34:04;;;;;;;23.83;16.00;;;9.30;54.00;;;;;;5059343;28;20688;-73
2022/03/10 09:36:30;;;;;;;23.87;14.67;;;9.40;53.90;;;;;;5057976;28;20285;-73
2022/03/10 09:38:56;;;;;;;24.23;15.90;;;9.50;53.90;;;;;;5061540;28;20262;-73
2022/03/10 09:41:22;;;;;;;22.80;14.83;;;9.70;53.80;;;;;;5058517;28;20880;-73
2022/03/10 09:43:49;;;;;;;25.90;14.17;;;9.80;54.10;;;;;;5060114;28;20183;-71
2022/03/10 09:46:15;;;;;;;21.53;14.33;;;9.90;53.70;;;;;;5058206;28;20206;-72
2022/03/10 09:48:41;;;;;;;21.50;13.70;;;10.00;53.20;;;;;;5062109;28;20429;-73
2022/03/10 09:51:08;;;;;;;20.80;14.73;;;10.10;52.80;;;;;;5042703;28;20465;-74
2022/03/10 09:53:35;;;;;;;23.50;16.00;;;10.10;52.80;;;;;;5044103;28;20460;-72
2022/03/10 09:56:03;;;;;;;30.83;17.17;;;10.10;52.70;;;;;;5040242;28;21206;-72
2022/03/10 09:58:31;;;;;;;22.70;13.10;;;10.30;53.10;;;;;;5059970;28;20858;-73
2022/03/10 10:01:00;;;;;;;16.80;10.07;;;10.40;52.50;;;;;;5060102;28;20595;-72
2022/03/10 10:03:26;;;;;;;13.03;9.60;;;10.50;51.80;;;;;;5059726;28;20440;-76
2022/03/10 10:05:58;;;;;;;11.90;8.37;;;10.60;51.50;;;;;;5042407;28;20430;-75
2022/03/10 10:08:24;;;;;;;13.53;8.70;;;10.80;50.40;;;;;;5064724;28;20433;-75
2022/03/10 10:10:53;;;;;;;13.93;7.77;;;10.90;49.70;;;;;;5064372;28;20452;-74
2022/03/10 10:13:43;;;;;;;11.80;7.77;;;11.10;49.70;;;;;;5064349;28;20199;-73
2022/03/10 10:16:19;;;;;;;11.73;8.20;;;11.20;49.40;;;;;;5063042;28;21015;-73
2022/03/10 10:18:45;;;;;;;12.27;8.37;;;11.30;49.20;;;;;;5065806;28;20972;-73
2022/03/10 10:21:12;;;;;;;11.40;8.37;;;11.40;48.90;;;;;;5063657;28;20517;-73
2022/03/10 10:23:39;;;;;;;13.07;8.30;;;11.50;48.80;;;;;;5064241;28;20187;-71
2022/03/10 10:26:07;;;;;;;10.07;7.17;;;11.60;48.90;;;;;;5058328;28;20441;-72
2022/03/10 10:28:42;;;;;;;10.17;8.10;;;11.80;48.90;;;;;;5061794;28;20437;-72
2022/03/10 10:31:13;;;;;;;11.30;8.20;;;11.90;48.50;;;;;;5062894;28;20462;-73
2022/03/10 10:33:54;;;;;;;14.17;7.67;;;11.90;48.50;;;;;;5060940;28;20473;-73
2022/03/10 10:36:34;;;;;;;9.63;7.27;;;12.10;49.00;;;;;;5062781;28;20432;-73
2022/03/10 10:39:12;;;;;;;11.10;7.90;;;12.20;48.10;;;;;;5060276;28;20436;-72
2022/03/10 10:41:42;;;;;;;8.47;7.30;;;12.20;48.10;;;;;;5063698;28;20424;-73
2022/03/10 10:44:09;;;;;;;9.90;7.93;;;12.30;47.90;;;;;;5060209;28;20426;-73
2022/03/10 10:46:38;;;;;;;11.73;9.00;;;12.50;47.50;;;;;;5063948;28;20861;-73
2022/03/10 10:49:14;;;;;;;11.27;7.70;;;12.50;47.90;;;;;;5064451;28;20429;-70
2022/03/10 10:51:43;;;;;;;10.10;7.80;;;12.60;47.90;;;;;;5065541;28;20821;-73
2022/03/10 10:54:29;;;;;;;10.27;7.53;;;12.70;48.00;;;;;;5056621;28;20441;-72
2022/03/10 10:56:57;;;;;;;10.03;8.67;;;12.80;48.00;;;;;;5060845;28;20451;-74
2022/03/10 10:59:39;;;;;;;8.80;6.83;;;12.90;47.60;;;;;;5061724;28;20464;-71
2022/03/10 11:02:14;;;;;;;8.83;7.03;;;12.90;47.10;;;;;;5063823;28;20808;-71
2022/03/10 11:04:42;;;;;;;8.53;7.43;;;12.90;46.50;;;;;;5060459;28;20480;-70
2022/03/10 11:07:09;;;;;;;9.80;6.97;;;13.00;46.90;;;;;;5063989;28;20468;-71
2022/03/10 11:09:36;;;;;;;10.60;6.73;;;13.10;46.10;;;;;;5061429;28;20461;-73
2022/03/10 11:12:02;;;;;;;9.63;7.60;;;13.10;46.00;;;;;;5060392;28;21096;-74
2022/03/10 11:14:28;;;;;;;16.43;6.80;;;13.20;46.50;;;;;;5061799;28;20455;-71
2022/03/10 11:16:55;;;;;;;8.90;7.20;;;13.20;46.50;;;;;;5062396;28;20429;-74
2022/03/10 11:19:25;;;;;;;9.80;6.97;;;13.40;46.60;;;;;;5063324;28;20203;-73
2022/03/10 11:21:57;;;;;;;11.43;7.10;;;13.50;46.70;;;;;;5061901;28;20856;-73
2022/03/10 11:24:40;;;;;;;8.47;6.30;;;13.50;45.90;;;;;;5038516;28;20773;-73
2022/03/10 11:27:22;;;;;;;11.20;6.83;;;13.50;46.20;;;;;;5059710;28;21195;-75
2022/03/10 11:29:53;;;;;;;12.37;8.10;;;13.70;46.20;;;;;;5057140;28;20843;-72
2022/03/10 11:32:27;;;;;;;11.10;7.30;;;13.80;45.90;;;;;;5060887;28;20472;-72
2022/03/10 11:34:56;;;;;;;14.33;9.03;;;13.90;46.00;;;;;;5056180;28;20451;-73
2022/03/10 11:37:40;;;;;;;11.63;7.80;;;13.90;45.90;;;;;;5060777;28;20433;-72
2022/03/10 11:40:08;;;;;;;13.30;7.20;;;13.90;46.00;;;;;;5059078;28;20461;-72
2022/03/10 11:42:35;;;;;;;11.43;8.13;;;14.00;46.20;;;;;;5057492;28;20430;-73
2022/03/10 11:45:21;;;;;;;12.20;8.70;;;14.00;46.00;;;;;;5059736;28;20437;-70
2022/03/10 11:47:48;;;;;;;15.43;10.40;;;14.20;46.20;;;;;;5053527;28;20444;-73
2022/03/10 11:50:26;;;;;;;14.93;9.33;;;14.30;46.10;;;;;;5061602;28;20468;-73
2022/03/10 11:53:03;;;;;;;13.80;9.70;;;14.40;46.00;;;;;;5058209;28;20457;-73
2022/03/10 11:55:46;;;;;;;11.90;9.67;;;14.40;45.50;;;;;;5060018;28;20452;-72
2022/03/10 11:58:13;;;;;;;15.27;9.63;;;14.50;45.30;;;;;;5055902;28;20434;-74
2022/03/10 12:00:48;;;;;;;15.17;9.63;;;14.60;45.70;;;;;;5060851;28;20540;-73
2022/03/10 12:03:36;;;;;;;15.30;9.43;;;14.90;45.70;;;;;;5058307;28;21004;-72
2022/03/10 12:06:04;;;;;;;11.60;9.10;;;15.20;45.40;;;;;;5059212;28;20433;-72
2022/03/10 12:08:35;;;;;;;13.27;8.97;;;15.30;44.80;;;;;;5056609;28;20480;-72
2022/03/10 12:11:05;;;;;;;12.97;9.87;;;15.70;44.30;;;;;;5059671;28;20865;-70
2022/03/10 12:13:39;;;;;;;10.70;8.80;;;16.30;44.10;;;;;;5056842;28;20473;-71
2022/03/10 12:16:06;;;;;;;15.50;9.67;;;17.10;43.20;;;;;;5059114;28;20446;-72
2022/03/10 12:18:42;;;;;;;10.73;8.70;;;18.00;41.50;;;;;;5059185;28;20441;-71
2022/03/10 12:21:21;;;;;;;20.03;13.03;;;18.70;40.70;;;;;;5062933;28;20512;-71
2022/03/10 12:23:51;;;;;;;10.63;8.67;;;19.30;39.70;;;;;;5059762;28;20445;-74
2022/03/10 12:26:28;;;;;;;13.60;8.50;;;20.20;38.60;;;;;;5061093;28;20422;-74
2022/03/10 12:28:56;;;;;;;8.70;7.57;;;20.80;37.80;;;;;;5059970;28;20849;-73
2022/03/10 12:31:25;;;;;;;10.70;7.60;;;21.10;37.30;;;;;;5062280;28;20445;-74
2022/03/10 12:33:51;;;;;;;8.03;6.20;;;21.80;36.70;;;;;;5058630;28;20553;-72
2022/03/10 12:36:51;;;;;;;9.17;6.23;;;22.20;35.20;;;;;;5061630;28;20472;-72
2022/03/10 12:39:25;;;;;;;7.60;6.70;;;22.30;35.80;;;;;;5060291;28;20453;-73
2022/03/10 12:42:01;;;;;;;9.37;6.13;;;23.30;34.90;;;;;;5063976;28;20433;-72
2022/03/10 12:44:28;;;;;;;7.60;6.20;;;23.70;33.60;;;;;;5055536;28;20441;-73
2022/03/10 12:46:54;;;;;;;7.07;6.10;;;24.30;33.00;;;;;;5062579;28;20459;-73
2022/03/10 12:49:43;;;;;;;7.03;5.50;;;24.50;32.80;;;;;;5061336;28;20978;-73